Aviation Digital Data Service (ADDS)

Output produced by METARs form (1201 UTC 26 March 2019)
found at http://www.aviationweather.gov/metar/data/
 
DBBB 261100Z 22006KT 180V260 9999 SCT014 31/25 Q1012 NOSIG
TAF DBBB 261100Z 2612/2718 22010KT 8000 SCT013 
     TEMPO 2614/2620 TS BKN012 FEW023CB